Fort Scott, KS

2:02 PM CDT on April 25, 2015 (GMT -0500)
NonFedAWOS | | Change Station
CLOSE
Current Station
Personal Weather Station
Location: Fort Scott, KS
Elevation: 917 ft
Nearby Weather Stations

Elev 917 ft 37.80 °N, 94.77 °W | Updated 14 minutes ago

Mostly Cloudy
Mostly Cloudy
73 °F
Feels Like 77 °F
N
20
Wind Variable Wind from West
Gusts 28.0 mph

Today
High -- | Low -- °F
--% Chance of Precip.
Yesterday
High -- | Low -- °F
Precip. -- in
6:30 AM 8:03 PM
Waxing Crescent, 48% visible
Pressure 29.55 in
Visibility 10.0 miles
Clouds Scattered Clouds 4600 ft
Mostly Cloudy 6000 ft
Heat Index 77 °F
Dew Point 55 °F
Humidity 53%
Rainfall in
Snow Depth Not available.
UV 6 out of 12
Pollen 9.90 out of 12
Air Quality Not available.
Flu Activity Sporadic
METAR KPTS 251855Z AUTO 29008G22KT 260V320 10SM SCT046 BKN060 22/13 A2955 RMK AO2 T02220134

More Conditions Fewer Conditions

Pressure 29.55 in
Visibility 10.0 miles
Clouds Scattered Clouds 4600 ft
Mostly Cloudy 6000 ft
Heat Index 77 °F
Dew Point 55 °F
Humidity 53%
Rainfall in
Snow Depth Not available.
UV 6 out of 12
Pollen 9.90 out of 12
Air Quality Not available.
Flu Activity Sporadic
METAR KPTS 251855Z AUTO 29008G22KT 260V320 10SM SCT046 BKN060 22/13 A2955 RMK AO2 T02220134

More Conditions Fewer Conditions

10-Day Weather Forecast

Almanac

Astronomy

Apr. 25, 2015 Rise Set
Actual Time
Civil Twilight
Nautical Twilight
Astronomical Twilight
Moon
Length of Visible Light
Length of Day
Tomorrow will be .
, % of the Moon is Illuminated

Today's Extremes

State Highs State Lows

Community

WunderPhotos

Upload Photos

1,816,768 photos uploaded!

WunderBlogs® & News

Nearby

Air Quality

  Air Quality AQ Index Pollutant
Not available.

Snow Depth

Station Depth Elevation

Earthquake Activity

City Distance Mag. Time & Date
Minimum magnitude displayed is 2.5.

Coastal Water Temperatures

Place Temperature

Stations

Nearby Weather Stations

Station Location Temp. Windchill Dew Point Humidity Wind Precip. Elev Updated Type